Ausonia, Argentina
Current Conditions -  °F | °C
As of 7:00 PM on Sunday 25 Jan 2015 (Local Time) from SAOC Reporting Station
Scattered Clouds Scattered Clouds  
Wind Chill: 90°   Ceiling: Unl
Heat Index: 95°   Visibility: 6mi
Dew Point: 70°   Wind: 21mph
Humidity: 52%   Direction: 20°NNE
Pressure: 29.74"   Gusts: NA
Location:  32.35°S, 63.22°W
Report Text: SAOC 252200Z 02018KT 9999 FEW020TCU SCT200 32/21 Q1007
Loading
Personal Weather Stations






























Interactive Weather Map New forecast layout! Learn more

10-Day Weather Forecast

Advertisements
Track Severe Weather on mobile